Eoline, Alabama
Current Conditions -  °F | °C
As of 3:53 PM on Saturday 20 Dec 2014 (Local Time) from KEET Reporting Station
Overcast Overcast  
Wind Chill: 51°   Ceiling: 3600
Heat Index: 51°   Visibility: 10mi
Dew Point: 42°   Wind: 6mph
Humidity: 71%   Direction: 360°N
Pressure: 30.17"   Gusts: NA
Location:  32.9085°N, 87.0467°W
Report Text: KEET 202153Z AUTO 36005KT 10SM OVC036 11/06 A3017 RMK AO2 SLP216 T01060056
Loading
Personal Weather Stations






























Interactive Weather Map New forecast layout! Learn more

10-Day Weather Forecast

Advertisements
Track Severe Weather on mobile